sensor_id;sensor_type;location;lat;lon;timestamp;P1;durP1;ratioP1;P2;durP2;ratioP2
10471;SDS011;5283;48.876;8.962;2023-05-31T00:00:22;4.10;;;2.60;;
10471;SDS011;5283;48.876;8.962;2023-05-31T00:02:49;5.23;;;2.90;;
10471;SDS011;5283;48.876;8.962;2023-05-31T00:05:16;3.67;;;2.80;;
10471;SDS011;5283;48.876;8.962;2023-05-31T00:07:42;5.03;;;2.90;;
10471;SDS011;5283;48.876;8.962;2023-05-31T00:10:09;4.87;;;2.97;;
10471;SDS011;5283;48.876;8.962;2023-05-31T00:12:36;4.17;;;2.90;;
10471;SDS011;5283;48.876;8.962;2023-05-31T00:15:03;3.77;;;2.60;;
10471;SDS011;5283;48.876;8.962;2023-05-31T00:17:30;6.40;;;2.93;;
10471;SDS011;5283;48.876;8.962;2023-05-31T00:20:14;3.80;;;2.60;;
10471;SDS011;5283;48.876;8.962;2023-05-31T00:22:41;3.57;;;3.00;;
10471;SDS011;5283;48.876;8.962;2023-05-31T00:25:07;3.70;;;2.70;;
10471;SDS011;5283;48.876;8.962;2023-05-31T00:27:34;5.13;;;2.80;;
10471;SDS011;5283;48.876;8.962;2023-05-31T00:30:01;3.47;;;2.70;;
10471;SDS011;5283;48.876;8.962;2023-05-31T00:32:28;3.50;;;2.90;;
10471;SDS011;5283;48.876;8.962;2023-05-31T00:34:54;4.23;;;3.10;;
10471;SDS011;5283;48.876;8.962;2023-05-31T00:37:21;5.83;;;3.00;;
10471;SDS011;5283;48.876;8.962;2023-05-31T00:39:48;4.13;;;2.67;;
10471;SDS011;5283;48.876;8.962;2023-05-31T00:42:14;3.33;;;2.83;;
10471;SDS011;5283;48.876;8.962;2023-05-31T00:44:41;4.23;;;2.80;;
10471;SDS011;5283;48.876;8.962;2023-05-31T00:47:08;3.97;;;2.90;;
10471;SDS011;5283;48.876;8.962;2023-05-31T00:49:35;3.87;;;3.03;;
10471;SDS011;5283;48.876;8.962;2023-05-31T00:52:03;2.67;;;2.47;;
10471;SDS011;5283;48.876;8.962;2023-05-31T00:54:31;6.13;;;3.20;;
10471;SDS011;5283;48.876;8.962;2023-05-31T00:56:58;8.03;;;3.27;;
10471;SDS011;5283;48.876;8.962;2023-05-31T00:59:24;5.67;;;2.73;;
10471;SDS011;5283;48.876;8.962;2023-05-31T01:01:51;3.00;;;2.70;;
10471;SDS011;5283;48.876;8.962;2023-05-31T01:04:20;5.20;;;3.30;;
10471;SDS011;5283;48.876;8.962;2023-05-31T01:06:47;3.97;;;2.87;;
10471;SDS011;5283;48.876;8.962;2023-05-31T01:09:16;5.50;;;3.13;;
10471;SDS011;5283;48.876;8.962;2023-05-31T01:11:58;3.87;;;2.90;;
10471;SDS011;5283;48.876;8.962;2023-05-31T01:20:28;3.30;;;3.00;;
10471;SDS011;5283;48.876;8.962;2023-05-31T01:28:33;3.87;;;3.07;;
10471;SDS011;5283;48.876;8.962;2023-05-31T01:31:03;4.17;;;2.90;;
10471;SDS011;5283;48.876;8.962;2023-05-31T01:33:33;2.90;;;2.60;;
10471;SDS011;5283;48.876;8.962;2023-05-31T01:36:01;4.00;;;2.90;;
10471;SDS011;5283;48.876;8.962;2023-05-31T01:38:29;4.50;;;3.17;;
10471;SDS011;5283;48.876;8.962;2023-05-31T01:40:56;4.67;;;3.07;;
10471;SDS011;5283;48.876;8.962;2023-05-31T01:43:25;6.57;;;2.90;;
10471;SDS011;5283;48.876;8.962;2023-05-31T01:45:56;3.73;;;3.10;;
10471;SDS011;5283;48.876;8.962;2023-05-31T01:48:23;4.70;;;3.20;;
10471;SDS011;5283;48.876;8.962;2023-05-31T01:50:52;5.00;;;3.27;;
10471;SDS011;5283;48.876;8.962;2023-05-31T01:53:19;5.07;;;3.10;;
10471;SDS011;5283;48.876;8.962;2023-05-31T01:55:46;5.67;;;3.10;;
10471;SDS011;5283;48.876;8.962;2023-05-31T01:58:13;4.30;;;3.23;;
10471;SDS011;5283;48.876;8.962;2023-05-31T02:00:42;4.33;;;2.77;;
10471;SDS011;5283;48.876;8.962;2023-05-31T02:03:09;6.97;;;3.03;;
10471;SDS011;5283;48.876;8.962;2023-05-31T02:05:37;3.50;;;3.20;;
10471;SDS011;5283;48.876;8.962;2023-05-31T02:08:23;3.73;;;3.10;;
10471;SDS011;5283;48.876;8.962;2023-05-31T02:10:51;3.77;;;3.27;;
10471;SDS011;5283;48.876;8.962;2023-05-31T02:13:19;4.00;;;3.10;;
10471;SDS011;5283;48.876;8.962;2023-05-31T02:15:46;7.33;;;3.00;;
10471;SDS011;5283;48.876;8.962;2023-05-31T02:18:13;4.40;;;3.50;;
10471;SDS011;5283;48.876;8.962;2023-05-31T02:20:43;3.20;;;2.90;;
10471;SDS011;5283;48.876;8.962;2023-05-31T02:23:10;3.10;;;2.70;;
10471;SDS011;5283;48.876;8.962;2023-05-31T02:25:37;4.13;;;3.17;;
10471;SDS011;5283;48.876;8.962;2023-05-31T02:28:03;4.53;;;3.10;;
10471;SDS011;5283;48.876;8.962;2023-05-31T02:30:30;4.37;;;3.30;;
10471;SDS011;5283;48.876;8.962;2023-05-31T02:32:57;4.90;;;3.30;;
10471;SDS011;5283;48.876;8.962;2023-05-31T02:35:26;5.07;;;3.10;;
10471;SDS011;5283;48.876;8.962;2023-05-31T02:37:52;4.47;;;3.13;;
10471;SDS011;5283;48.876;8.962;2023-05-31T02:40:19;3.83;;;2.90;;
10471;SDS011;5283;48.876;8.962;2023-05-31T02:42:46;4.63;;;3.07;;
10471;SDS011;5283;48.876;8.962;2023-05-31T02:45:13;3.90;;;3.20;;
10471;SDS011;5283;48.876;8.962;2023-05-31T02:47:40;7.80;;;3.17;;
10471;SDS011;5283;48.876;8.962;2023-05-31T02:50:07;4.50;;;3.20;;
10471;SDS011;5283;48.876;8.962;2023-05-31T02:52:38;5.03;;;3.23;;
10471;SDS011;5283;48.876;8.962;2023-05-31T02:55:05;7.10;;;3.30;;
10471;SDS011;5283;48.876;8.962;2023-05-31T02:57:32;4.13;;;3.07;;
10471;SDS011;5283;48.876;8.962;2023-05-31T02:59:59;4.20;;;3.27;;
10471;SDS011;5283;48.876;8.962;2023-05-31T03:02:37;3.80;;;2.97;;
10471;SDS011;5283;48.876;8.962;2023-05-31T03:05:05;4.40;;;2.93;;
10471;SDS011;5283;48.876;8.962;2023-05-31T03:07:32;5.00;;;3.30;;
10471;SDS011;5283;48.876;8.962;2023-05-31T03:09:59;4.43;;;3.37;;
10471;SDS011;5283;48.876;8.962;2023-05-31T03:12:26;4.13;;;3.20;;
10471;SDS011;5283;48.876;8.962;2023-05-31T03:14:53;7.23;;;3.63;;
10471;SDS011;5283;48.876;8.962;2023-05-31T03:17:20;5.07;;;2.97;;
10471;SDS011;5283;48.876;8.962;2023-05-31T03:19:47;3.77;;;3.23;;
10471;SDS011;5283;48.876;8.962;2023-05-31T03:22:13;3.60;;;2.87;;
10471;SDS011;5283;48.876;8.962;2023-05-31T03:24:40;4.97;;;3.30;;
10471;SDS011;5283;48.876;8.962;2023-05-31T03:27:07;5.70;;;3.20;;
10471;SDS011;5283;48.876;8.962;2023-05-31T03:29:40;4.93;;;3.30;;
10471;SDS011;5283;48.876;8.962;2023-05-31T03:32:08;5.87;;;3.40;;
10471;SDS011;5283;48.876;8.962;2023-05-31T03:34:34;5.20;;;3.07;;
10471;SDS011;5283;48.876;8.962;2023-05-31T03:37:01;4.43;;;3.43;;
10471;SDS011;5283;48.876;8.962;2023-05-31T03:39:28;6.03;;;3.60;;
10471;SDS011;5283;48.876;8.962;2023-05-31T03:41:55;6.07;;;3.37;;
10471;SDS011;5283;48.876;8.962;2023-05-31T03:44:22;4.70;;;3.47;;
10471;SDS011;5283;48.876;8.962;2023-05-31T03:46:48;5.03;;;3.30;;
10471;SDS011;5283;48.876;8.962;2023-05-31T03:49:16;5.03;;;3.10;;
10471;SDS011;5283;48.876;8.962;2023-05-31T03:51:43;7.17;;;3.43;;
10471;SDS011;5283;48.876;8.962;2023-05-31T03:54:09;3.40;;;3.10;;
10471;SDS011;5283;48.876;8.962;2023-05-31T03:56:36;4.53;;;3.20;;
10471;SDS011;5283;48.876;8.962;2023-05-31T03:59:03;5.27;;;3.57;;
10471;SDS011;5283;48.876;8.962;2023-05-31T04:01:30;3.93;;;3.40;;
10471;SDS011;5283;48.876;8.962;2023-05-31T04:03:58;3.13;;;2.80;;
10471;SDS011;5283;48.876;8.962;2023-05-31T04:06:25;2.90;;;2.50;;
10471;SDS011;5283;48.876;8.962;2023-05-31T04:08:53;2.90;;;2.43;;
10471;SDS011;5283;48.876;8.962;2023-05-31T04:11:19;2.40;;;2.20;;
10471;SDS011;5283;48.876;8.962;2023-05-31T04:13:46;6.00;;;2.80;;
10471;SDS011;5283;48.876;8.962;2023-05-31T04:16:13;5.10;;;2.50;;
10471;SDS011;5283;48.876;8.962;2023-05-31T04:18:40;2.77;;;2.40;;
10471;SDS011;5283;48.876;8.962;2023-05-31T04:21:06;2.50;;;2.20;;
10471;SDS011;5283;48.876;8.962;2023-05-31T04:23:33;3.20;;;2.40;;
10471;SDS011;5283;48.876;8.962;2023-05-31T04:26:02;2.30;;;2.07;;
10471;SDS011;5283;48.876;8.962;2023-05-31T04:28:29;2.77;;;2.00;;
10471;SDS011;5283;48.876;8.962;2023-05-31T04:30:56;2.30;;;1.90;;
10471;SDS011;5283;48.876;8.962;2023-05-31T04:33:23;1.93;;;1.77;;
10471;SDS011;5283;48.876;8.962;2023-05-31T04:35:50;2.93;;;2.40;;
10471;SDS011;5283;48.876;8.962;2023-05-31T04:38:17;2.83;;;2.30;;
10471;SDS011;5283;48.876;8.962;2023-05-31T04:40:44;5.73;;;2.43;;
10471;SDS011;5283;48.876;8.962;2023-05-31T04:43:11;4.00;;;2.10;;
10471;SDS011;5283;48.876;8.962;2023-05-31T04:45:37;2.60;;;2.37;;
10471;SDS011;5283;48.876;8.962;2023-05-31T04:48:04;2.13;;;1.93;;
10471;SDS011;5283;48.876;8.962;2023-05-31T04:50:31;2.47;;;2.10;;
10471;SDS011;5283;48.876;8.962;2023-05-31T04:52:59;2.43;;;2.23;;
10471;SDS011;5283;48.876;8.962;2023-05-31T04:55:26;4.03;;;1.90;;
10471;SDS011;5283;48.876;8.962;2023-05-31T04:57:53;3.40;;;2.27;;
10471;SDS011;5283;48.876;8.962;2023-05-31T05:00:20;3.73;;;2.20;;
10471;SDS011;5283;48.876;8.962;2023-05-31T05:02:47;3.30;;;2.17;;
10471;SDS011;5283;48.876;8.962;2023-05-31T05:05:13;3.37;;;2.37;;
10471;SDS011;5283;48.876;8.962;2023-05-31T05:07:42;2.00;;;1.80;;
10471;SDS011;5283;48.876;8.962;2023-05-31T05:10:09;2.90;;;2.10;;
10471;SDS011;5283;48.876;8.962;2023-05-31T05:12:36;3.63;;;2.23;;
10471;SDS011;5283;48.876;8.962;2023-05-31T05:15:03;3.57;;;2.27;;
10471;SDS011;5283;48.876;8.962;2023-05-31T05:17:30;4.27;;;2.30;;
10471;SDS011;5283;48.876;8.962;2023-05-31T05:19:56;3.37;;;2.37;;
10471;SDS011;5283;48.876;8.962;2023-05-31T05:22:23;2.93;;;2.03;;
10471;SDS011;5283;48.876;8.962;2023-05-31T05:24:50;3.07;;;2.13;;
10471;SDS011;5283;48.876;8.962;2023-05-31T05:27:17;5.30;;;2.37;;
10471;SDS011;5283;48.876;8.962;2023-05-31T05:29:43;3.20;;;2.50;;
10471;SDS011;5283;48.876;8.962;2023-05-31T05:32:10;2.90;;;2.20;;
10471;SDS011;5283;48.876;8.962;2023-05-31T05:34:37;3.33;;;2.20;;
10471;SDS011;5283;48.876;8.962;2023-05-31T05:37:04;3.67;;;2.50;;
10471;SDS011;5283;48.876;8.962;2023-05-31T05:39:31;3.43;;;2.30;;
10471;SDS011;5283;48.876;8.962;2023-05-31T05:41:58;3.23;;;2.30;;
10471;SDS011;5283;48.876;8.962;2023-05-31T05:44:25;2.83;;;2.27;;
10471;SDS011;5283;48.876;8.962;2023-05-31T05:46:51;2.77;;;2.30;;
10471;SDS011;5283;48.876;8.962;2023-05-31T05:49:18;4.27;;;2.30;;
10471;SDS011;5283;48.876;8.962;2023-05-31T05:51:45;4.17;;;2.20;;
10471;SDS011;5283;48.876;8.962;2023-05-31T05:54:11;6.03;;;2.57;;
10471;SDS011;5283;48.876;8.962;2023-05-31T05:56:38;2.70;;;2.07;;
10471;SDS011;5283;48.876;8.962;2023-05-31T05:59:05;4.70;;;2.60;;
10471;SDS011;5283;48.876;8.962;2023-05-31T06:01:32;4.20;;;2.30;;
10471;SDS011;5283;48.876;8.962;2023-05-31T06:04:00;4.53;;;2.60;;
10471;SDS011;5283;48.876;8.962;2023-05-31T06:06:27;4.97;;;2.33;;
10471;SDS011;5283;48.876;8.962;2023-05-31T06:08:54;4.30;;;2.60;;
10471;SDS011;5283;48.876;8.962;2023-05-31T06:11:20;3.43;;;2.30;;
10471;SDS011;5283;48.876;8.962;2023-05-31T06:13:49;5.03;;;2.30;;
10471;SDS011;5283;48.876;8.962;2023-05-31T06:16:16;8.13;;;2.57;;
10471;SDS011;5283;48.876;8.962;2023-05-31T06:18:47;5.00;;;2.70;;
10471;SDS011;5283;48.876;8.962;2023-05-31T06:21:13;4.90;;;2.10;;
10471;SDS011;5283;48.876;8.962;2023-05-31T06:23:40;4.63;;;2.20;;
10471;SDS011;5283;48.876;8.962;2023-05-31T06:26:07;3.37;;;2.50;;
10471;SDS011;5283;48.876;8.962;2023-05-31T06:28:34;4.57;;;2.60;;
10471;SDS011;5283;48.876;8.962;2023-05-31T06:31:02;2.83;;;1.97;;
10471;SDS011;5283;48.876;8.962;2023-05-31T06:33:29;4.63;;;2.77;;
10471;SDS011;5283;48.876;8.962;2023-05-31T06:35:56;4.13;;;2.40;;
10471;SDS011;5283;48.876;8.962;2023-05-31T06:38:23;5.10;;;2.63;;
10471;SDS011;5283;48.876;8.962;2023-05-31T06:40:50;5.97;;;2.30;;
10471;SDS011;5283;48.876;8.962;2023-05-31T06:43:18;8.17;;;3.23;;
10471;SDS011;5283;48.876;8.962;2023-05-31T06:45:45;4.10;;;2.30;;
10471;SDS011;5283;48.876;8.962;2023-05-31T06:48:12;5.47;;;2.90;;
10471;SDS011;5283;48.876;8.962;2023-05-31T06:50:38;4.37;;;2.40;;
10471;SDS011;5283;48.876;8.962;2023-05-31T06:53:05;8.43;;;2.87;;
10471;SDS011;5283;48.876;8.962;2023-05-31T06:55:35;4.37;;;2.73;;
10471;SDS011;5283;48.876;8.962;2023-05-31T06:58:02;5.17;;;2.30;;
10471;SDS011;5283;48.876;8.962;2023-05-31T07:00:29;8.17;;;3.03;;
10471;SDS011;5283;48.876;8.962;2023-05-31T07:02:56;5.87;;;2.37;;
10471;SDS011;5283;48.876;8.962;2023-05-31T07:05:23;9.90;;;2.80;;
10471;SDS011;5283;48.876;8.962;2023-05-31T07:07:50;4.47;;;2.33;;
10471;SDS011;5283;48.876;8.962;2023-05-31T07:10:16;4.50;;;2.60;;
10471;SDS011;5283;48.876;8.962;2023-05-31T07:12:43;6.47;;;2.60;;
10471;SDS011;5283;48.876;8.962;2023-05-31T07:15:10;10.23;;;2.80;;
10471;SDS011;5283;48.876;8.962;2023-05-31T07:17:37;7.57;;;2.80;;
10471;SDS011;5283;48.876;8.962;2023-05-31T07:20:04;4.43;;;2.63;;
10471;SDS011;5283;48.876;8.962;2023-05-31T07:22:32;5.10;;;2.83;;
10471;SDS011;5283;48.876;8.962;2023-05-31T07:25:00;5.07;;;2.70;;
10471;SDS011;5283;48.876;8.962;2023-05-31T07:27:27;6.73;;;2.60;;
10471;SDS011;5283;48.876;8.962;2023-05-31T07:29:54;7.33;;;2.50;;
10471;SDS011;5283;48.876;8.962;2023-05-31T07:32:21;6.20;;;2.70;;
10471;SDS011;5283;48.876;8.962;2023-05-31T07:34:48;9.10;;;2.70;;
10471;SDS011;5283;48.876;8.962;2023-05-31T07:37:15;4.20;;;2.53;;
10471;SDS011;5283;48.876;8.962;2023-05-31T07:39:44;4.87;;;2.60;;
10471;SDS011;5283;48.876;8.962;2023-05-31T07:42:10;5.10;;;2.70;;
10471;SDS011;5283;48.876;8.962;2023-05-31T07:44:39;4.93;;;2.97;;
10471;SDS011;5283;48.876;8.962;2023-05-31T07:47:06;6.50;;;3.00;;
10471;SDS011;5283;48.876;8.962;2023-05-31T07:49:32;6.40;;;2.63;;
10471;SDS011;5283;48.876;8.962;2023-05-31T07:51:59;9.33;;;2.70;;
10471;SDS011;5283;48.876;8.962;2023-05-31T07:54:27;4.30;;;2.40;;
10471;SDS011;5283;48.876;8.962;2023-05-31T07:56:53;5.43;;;2.50;;
10471;SDS011;5283;48.876;8.962;2023-05-31T07:59:20;5.17;;;2.53;;
10471;SDS011;5283;48.876;8.962;2023-05-31T08:01:47;7.20;;;2.60;;
10471;SDS011;5283;48.876;8.962;2023-05-31T08:04:14;6.67;;;2.40;;
10471;SDS011;5283;48.876;8.962;2023-05-31T08:06:41;3.03;;;2.53;;
10471;SDS011;5283;48.876;8.962;2023-05-31T08:09:08;5.05;;;2.83;;
10471;SDS011;5283;48.876;8.962;2023-05-31T08:11:35;5.95;;;2.58;;
10471;SDS011;5283;48.876;8.962;2023-05-31T08:14:05;5.43;;;2.65;;
10471;SDS011;5283;48.876;8.962;2023-05-31T08:16:32;5.82;;;2.80;;
10471;SDS011;5283;48.876;8.962;2023-05-31T08:18:59;6.10;;;2.70;;
10471;SDS011;5283;48.876;8.962;2023-05-31T08:21:27;6.10;;;2.37;;
10471;SDS011;5283;48.876;8.962;2023-05-31T08:23:54;6.10;;;2.67;;
10471;SDS011;5283;48.876;8.962;2023-05-31T08:26:21;4.90;;;2.63;;
10471;SDS011;5283;48.876;8.962;2023-05-31T08:28:48;5.03;;;2.42;;
10471;SDS011;5283;48.876;8.962;2023-05-31T08:31:15;6.25;;;2.70;;
10471;SDS011;5283;48.876;8.962;2023-05-31T08:33:52;4.87;;;2.23;;
10471;SDS011;5283;48.876;8.962;2023-05-31T08:36:22;5.53;;;2.87;;
10471;SDS011;5283;48.876;8.962;2023-05-31T08:38:50;5.73;;;2.87;;
10471;SDS011;5283;48.876;8.962;2023-05-31T08:41:17;7.40;;;2.70;;
10471;SDS011;5283;48.876;8.962;2023-05-31T08:43:45;4.70;;;2.97;;
10471;SDS011;5283;48.876;8.962;2023-05-31T08:46:15;7.70;;;2.77;;
10471;SDS011;5283;48.876;8.962;2023-05-31T08:48:58;10.20;;;3.00;;
10471;SDS011;5283;48.876;8.962;2023-05-31T08:51:28;5.73;;;2.70;;
10471;SDS011;5283;48.876;8.962;2023-05-31T08:53:55;6.13;;;2.70;;
10471;SDS011;5283;48.876;8.962;2023-05-31T08:56:24;3.57;;;2.77;;
10471;SDS011;5283;48.876;8.962;2023-05-31T08:58:52;3.07;;;2.73;;
10471;SDS011;5283;48.876;8.962;2023-05-31T09:01:20;5.00;;;2.90;;
10471;SDS011;5283;48.876;8.962;2023-05-31T09:03:50;6.30;;;2.90;;
10471;SDS011;5283;48.876;8.962;2023-05-31T09:06:19;6.57;;;2.73;;
10471;SDS011;5283;48.876;8.962;2023-05-31T09:08:46;5.87;;;2.40;;
10471;SDS011;5283;48.876;8.962;2023-05-31T09:11:13;7.53;;;3.00;;
10471;SDS011;5283;48.876;8.962;2023-05-31T09:13:40;5.70;;;2.73;;
10471;SDS011;5283;48.876;8.962;2023-05-31T09:16:07;5.90;;;2.53;;
10471;SDS011;5283;48.876;8.962;2023-05-31T09:18:37;6.30;;;2.70;;
10471;SDS011;5283;48.876;8.962;2023-05-31T09:21:07;3.53;;;2.57;;
10471;SDS011;5283;48.876;8.962;2023-05-31T09:23:36;6.43;;;2.53;;
10471;SDS011;5283;48.876;8.962;2023-05-31T09:26:05;5.87;;;2.77;;
10471;SDS011;5283;48.876;8.962;2023-05-31T09:28:32;7.13;;;2.53;;
10471;SDS011;5283;48.876;8.962;2023-05-31T09:31:00;4.00;;;2.50;;
10471;SDS011;5283;48.876;8.962;2023-05-31T09:33:39;5.80;;;2.90;;
10471;SDS011;5283;48.876;8.962;2023-05-31T09:36:08;5.43;;;3.00;;
10471;SDS011;5283;48.876;8.962;2023-05-31T09:38:36;5.70;;;2.67;;
10471;SDS011;5283;48.876;8.962;2023-05-31T09:43:42;5.03;;;2.50;;
10471;SDS011;5283;48.876;8.962;2023-05-31T09:46:14;6.30;;;2.90;;
10471;SDS011;5283;48.876;8.962;2023-05-31T09:48:45;6.83;;;2.87;;
10471;SDS011;5283;48.876;8.962;2023-05-31T09:51:35;3.77;;;2.83;;
10471;SDS011;5283;48.876;8.962;2023-05-31T09:54:09;6.13;;;2.63;;
10471;SDS011;5283;48.876;8.962;2023-05-31T09:56:37;6.93;;;2.30;;
10471;SDS011;5283;48.876;8.962;2023-05-31T09:59:07;5.10;;;2.80;;
10471;SDS011;5283;48.876;8.962;2023-05-31T10:01:34;5.93;;;2.53;;
10471;SDS011;5283;48.876;8.962;2023-05-31T10:04:03;5.27;;;2.90;;
10471;SDS011;5283;48.876;8.962;2023-05-31T10:06:31;6.10;;;3.10;;
10471;SDS011;5283;48.876;8.962;2023-05-31T10:09:02;6.73;;;2.90;;
10471;SDS011;5283;48.876;8.962;2023-05-31T10:11:33;5.53;;;2.63;;
10471;SDS011;5283;48.876;8.962;2023-05-31T10:14:02;8.23;;;2.87;;
10471;SDS011;5283;48.876;8.962;2023-05-31T10:16:38;6.97;;;2.67;;
10471;SDS011;5283;48.876;8.962;2023-05-31T10:19:12;4.00;;;2.40;;
10471;SDS011;5283;48.876;8.962;2023-05-31T10:21:42;4.03;;;2.60;;
10471;SDS011;5283;48.876;8.962;2023-05-31T10:26:59;4.33;;;2.50;;
10471;SDS011;5283;48.876;8.962;2023-05-31T10:29:35;4.03;;;2.77;;
10471;SDS011;5283;48.876;8.962;2023-05-31T10:32:06;7.77;;;2.50;;
10471;SDS011;5283;48.876;8.962;2023-05-31T10:34:39;3.00;;;2.30;;
10471;SDS011;5283;48.876;8.962;2023-05-31T10:37:06;5.23;;;2.70;;
10471;SDS011;5283;48.876;8.962;2023-05-31T10:45:26;6.17;;;2.50;;
10471;SDS011;5283;48.876;8.962;2023-05-31T10:48:13;4.50;;;2.60;;
10471;SDS011;5283;48.876;8.962;2023-05-31T10:51:15;4.57;;;2.57;;
10471;SDS011;5283;48.876;8.962;2023-05-31T10:53:43;3.33;;;2.00;;
10471;SDS011;5283;48.876;8.962;2023-05-31T10:56:14;3.70;;;2.50;;
10471;SDS011;5283;48.876;8.962;2023-05-31T10:58:42;6.97;;;2.57;;
10471;SDS011;5283;48.876;8.962;2023-05-31T11:01:14;6.67;;;2.70;;
10471;SDS011;5283;48.876;8.962;2023-05-31T11:03:50;4.50;;;2.37;;
10471;SDS011;5283;48.876;8.962;2023-05-31T11:06:28;5.47;;;2.40;;
10471;SDS011;5283;48.876;8.962;2023-05-31T11:08:59;4.87;;;2.40;;
10471;SDS011;5283;48.876;8.962;2023-05-31T11:19:17;6.20;;;2.63;;
10471;SDS011;5283;48.876;8.962;2023-05-31T11:21:52;5.90;;;2.70;;
10471;SDS011;5283;48.876;8.962;2023-05-31T11:24:31;6.03;;;2.43;;
10471;SDS011;5283;48.876;8.962;2023-05-31T11:27:22;3.97;;;2.27;;
10471;SDS011;5283;48.876;8.962;2023-05-31T11:30:09;5.90;;;2.60;;
10471;SDS011;5283;48.876;8.962;2023-05-31T11:35:06;3.00;;;2.33;;
10471;SDS011;5283;48.876;8.962;2023-05-31T11:37:37;4.87;;;2.80;;
10471;SDS011;5283;48.876;8.962;2023-05-31T11:40:05;4.77;;;2.43;;
10471;SDS011;5283;48.876;8.962;2023-05-31T11:42:38;4.90;;;2.43;;
10471;SDS011;5283;48.876;8.962;2023-05-31T11:45:06;6.67;;;2.40;;
10471;SDS011;5283;48.876;8.962;2023-05-31T11:50:14;3.70;;;2.43;;
10471;SDS011;5283;48.876;8.962;2023-05-31T11:52:43;5.77;;;2.43;;
10471;SDS011;5283;48.876;8.962;2023-05-31T11:55:10;3.80;;;2.53;;
10471;SDS011;5283;48.876;8.962;2023-05-31T11:57:41;3.07;;;2.47;;
10471;SDS011;5283;48.876;8.962;2023-05-31T12:00:11;4.13;;;2.20;;
10471;SDS011;5283;48.876;8.962;2023-05-31T12:02:39;4.60;;;2.40;;
10471;SDS011;5283;48.876;8.962;2023-05-31T12:05:06;4.27;;;2.40;;
10471;SDS011;5283;48.876;8.962;2023-05-31T12:07:36;6.13;;;2.57;;
10471;SDS011;5283;48.876;8.962;2023-05-31T12:10:07;4.40;;;2.33;;
10471;SDS011;5283;48.876;8.962;2023-05-31T12:12:34;2.27;;;2.07;;
10471;SDS011;5283;48.876;8.962;2023-05-31T12:15:02;5.77;;;2.50;;
10471;SDS011;5283;48.876;8.962;2023-05-31T12:17:29;3.43;;;2.30;;
10471;SDS011;5283;48.876;8.962;2023-05-31T12:20:00;4.43;;;2.40;;
10471;SDS011;5283;48.876;8.962;2023-05-31T12:22:27;3.43;;;2.30;;
10471;SDS011;5283;48.876;8.962;2023-05-31T12:24:54;7.23;;;3.07;;
10471;SDS011;5283;48.876;8.962;2023-05-31T12:27:23;5.73;;;2.50;;
10471;SDS011;5283;48.876;8.962;2023-05-31T12:29:57;4.43;;;2.47;;
10471;SDS011;5283;48.876;8.962;2023-05-31T12:32:24;4.97;;;2.43;;
10471;SDS011;5283;48.876;8.962;2023-05-31T12:35:02;3.80;;;2.13;;
10471;SDS011;5283;48.876;8.962;2023-05-31T12:37:36;4.33;;;2.40;;
10471;SDS011;5283;48.876;8.962;2023-05-31T12:42:35;3.47;;;2.33;;
10471;SDS011;5283;48.876;8.962;2023-05-31T12:45:05;5.60;;;2.30;;
10471;SDS011;5283;48.876;8.962;2023-05-31T12:47:33;7.23;;;2.50;;
10471;SDS011;5283;48.876;8.962;2023-05-31T12:50:03;4.97;;;2.30;;
10471;SDS011;5283;48.876;8.962;2023-05-31T12:52:33;4.83;;;2.20;;
10471;SDS011;5283;48.876;8.962;2023-05-31T12:55:06;3.13;;;2.03;;
10471;SDS011;5283;48.876;8.962;2023-05-31T12:57:34;5.60;;;2.47;;
10471;SDS011;5283;48.876;8.962;2023-05-31T13:00:02;2.97;;;1.80;;
10471;SDS011;5283;48.876;8.962;2023-05-31T13:02:34;5.80;;;2.30;;
10471;SDS011;5283;48.876;8.962;2023-05-31T13:05:00;2.70;;;2.27;;
10471;SDS011;5283;48.876;8.962;2023-05-31T13:07:27;6.43;;;2.53;;
10471;SDS011;5283;48.876;8.962;2023-05-31T13:09:54;3.90;;;2.40;;
10471;SDS011;5283;48.876;8.962;2023-05-31T13:12:21;4.97;;;2.43;;
10471;SDS011;5283;48.876;8.962;2023-05-31T13:14:47;4.67;;;2.20;;
10471;SDS011;5283;48.876;8.962;2023-05-31T13:17:14;7.07;;;2.30;;
10471;SDS011;5283;48.876;8.962;2023-05-31T13:19:41;3.63;;;2.20;;
10471;SDS011;5283;48.876;8.962;2023-05-31T13:22:11;4.73;;;2.20;;
10471;SDS011;5283;48.876;8.962;2023-05-31T13:24:38;3.33;;;1.93;;
10471;SDS011;5283;48.876;8.962;2023-05-31T13:27:06;7.43;;;1.93;;
10471;SDS011;5283;48.876;8.962;2023-05-31T13:29:33;5.00;;;2.27;;
10471;SDS011;5283;48.876;8.962;2023-05-31T13:32:00;3.60;;;2.20;;
10471;SDS011;5283;48.876;8.962;2023-05-31T13:34:26;6.20;;;2.23;;
10471;SDS011;5283;48.876;8.962;2023-05-31T13:36:53;2.27;;;2.00;;
10471;SDS011;5283;48.876;8.962;2023-05-31T13:39:20;4.63;;;2.20;;
10471;SDS011;5283;48.876;8.962;2023-05-31T13:41:47;3.13;;;2.20;;
10471;SDS011;5283;48.876;8.962;2023-05-31T13:44:13;3.33;;;1.77;;
10471;SDS011;5283;48.876;8.962;2023-05-31T13:46:42;4.73;;;2.20;;
10471;SDS011;5283;48.876;8.962;2023-05-31T13:49:09;3.57;;;2.27;;
10471;SDS011;5283;48.876;8.962;2023-05-31T13:51:36;5.73;;;2.20;;
10471;SDS011;5283;48.876;8.962;2023-05-31T13:54:03;6.07;;;2.43;;
10471;SDS011;5283;48.876;8.962;2023-05-31T13:56:30;4.20;;;2.10;;
10471;SDS011;5283;48.876;8.962;2023-05-31T13:58:57;4.23;;;2.10;;
10471;SDS011;5283;48.876;8.962;2023-05-31T14:01:25;5.50;;;2.20;;
10471;SDS011;5283;48.876;8.962;2023-05-31T14:03:52;3.50;;;1.83;;
10471;SDS011;5283;48.876;8.962;2023-05-31T14:06:20;3.80;;;1.97;;
10471;SDS011;5283;48.876;8.962;2023-05-31T14:08:47;3.47;;;2.10;;
10471;SDS011;5283;48.876;8.962;2023-05-31T14:11:14;3.97;;;2.30;;
10471;SDS011;5283;48.876;8.962;2023-05-31T14:13:42;4.30;;;2.43;;
10471;SDS011;5283;48.876;8.962;2023-05-31T14:16:09;6.10;;;2.33;;
10471;SDS011;5283;48.876;8.962;2023-05-31T14:18:36;4.83;;;2.20;;
10471;SDS011;5283;48.876;8.962;2023-05-31T14:21:02;3.67;;;2.10;;
10471;SDS011;5283;48.876;8.962;2023-05-31T14:23:29;5.37;;;2.10;;
10471;SDS011;5283;48.876;8.962;2023-05-31T14:25:56;4.63;;;2.17;;
10471;SDS011;5283;48.876;8.962;2023-05-31T14:28:23;4.13;;;2.10;;
10471;SDS011;5283;48.876;8.962;2023-05-31T14:30:49;7.53;;;2.20;;
10471;SDS011;5283;48.876;8.962;2023-05-31T14:33:16;3.97;;;2.13;;
10471;SDS011;5283;48.876;8.962;2023-05-31T14:35:44;3.10;;;2.13;;
10471;SDS011;5283;48.876;8.962;2023-05-31T14:38:11;4.20;;;2.47;;
10471;SDS011;5283;48.876;8.962;2023-05-31T14:40:38;5.53;;;2.20;;
10471;SDS011;5283;48.876;8.962;2023-05-31T14:43:04;3.30;;;2.20;;
10471;SDS011;5283;48.876;8.962;2023-05-31T14:45:31;2.83;;;2.00;;
10471;SDS011;5283;48.876;8.962;2023-05-31T14:47:58;3.23;;;2.10;;
10471;SDS011;5283;48.876;8.962;2023-05-31T14:50:25;2.50;;;2.30;;
10471;SDS011;5283;48.876;8.962;2023-05-31T14:52:52;5.60;;;2.00;;
10471;SDS011;5283;48.876;8.962;2023-05-31T14:55:19;2.37;;;2.00;;
10471;SDS011;5283;48.876;8.962;2023-05-31T14:57:46;2.87;;;2.20;;
10471;SDS011;5283;48.876;8.962;2023-05-31T15:00:13;4.10;;;2.60;;
10471;SDS011;5283;48.876;8.962;2023-05-31T15:02:40;6.13;;;2.20;;
10471;SDS011;5283;48.876;8.962;2023-05-31T15:05:08;3.27;;;2.33;;
10471;SDS011;5283;48.876;8.962;2023-05-31T15:07:35;4.17;;;2.27;;
10471;SDS011;5283;48.876;8.962;2023-05-31T15:10:03;4.83;;;1.90;;
10471;SDS011;5283;48.876;8.962;2023-05-31T15:12:30;4.47;;;2.30;;
10471;SDS011;5283;48.876;8.962;2023-05-31T15:14:57;3.80;;;2.20;;
10471;SDS011;5283;48.876;8.962;2023-05-31T15:17:23;7.33;;;2.33;;
10471;SDS011;5283;48.876;8.962;2023-05-31T15:19:50;5.10;;;2.40;;
10471;SDS011;5283;48.876;8.962;2023-05-31T15:22:17;5.03;;;2.03;;
10471;SDS011;5283;48.876;8.962;2023-05-31T15:24:44;4.13;;;2.10;;
10471;SDS011;5283;48.876;8.962;2023-05-31T15:27:11;2.77;;;2.07;;
10471;SDS011;5283;48.876;8.962;2023-05-31T15:29:39;2.50;;;2.30;;
10471;SDS011;5283;48.876;8.962;2023-05-31T15:32:06;3.57;;;2.10;;
10471;SDS011;5283;48.876;8.962;2023-05-31T15:34:33;4.33;;;2.23;;
10471;SDS011;5283;48.876;8.962;2023-05-31T15:37:00;4.97;;;2.23;;
10471;SDS011;5283;48.876;8.962;2023-05-31T15:39:27;4.50;;;2.27;;
10471;SDS011;5283;48.876;8.962;2023-05-31T15:41:54;3.77;;;2.07;;
10471;SDS011;5283;48.876;8.962;2023-05-31T15:44:21;3.37;;;2.50;;